createdAt,value
2017-10-20T00:00:06.034Z,1004.53
2017-10-20T00:00:46.578Z,1004.52
2017-10-20T00:01:27.114Z,1004.5
2017-10-20T00:02:07.665Z,1004.49
2017-10-20T00:02:48.195Z,1004.51
2017-10-20T00:03:28.717Z,1004.52
2017-10-20T00:04:09.260Z,1004.51
2017-10-20T00:04:49.799Z,1004.55
2017-10-20T00:05:30.339Z,1004.52
2017-10-20T00:06:10.881Z,1004.5
2017-10-20T00:06:51.420Z,1004.42
2017-10-20T00:07:31.957Z,1004.43
2017-10-20T00:08:12.499Z,1004.49
2017-10-20T00:08:53.039Z,1004.52
2017-10-20T00:09:33.579Z,1004.48
2017-10-20T00:10:14.117Z,1004.52
2017-10-20T00:10:54.681Z,1004.56
2017-10-20T00:11:35.188Z,1004.53
2017-10-20T00:12:15.729Z,1004.54
2017-10-20T00:12:56.271Z,1004.56
2017-10-20T00:13:36.817Z,1004.61
2017-10-20T00:14:17.354Z,1004.58
2017-10-20T00:14:57.891Z,1004.57
2017-10-20T00:15:38.478Z,1004.56
2017-10-20T00:16:18.993Z,1004.56
2017-10-20T00:16:59.576Z,1004.61
2017-10-20T00:17:40.126Z,1004.57
2017-10-20T00:18:20.659Z,1004.53
2017-10-20T00:19:01.197Z,1004.6
2017-10-20T00:19:41.735Z,1004.57
2017-10-20T00:20:22.266Z,1004.56
2017-10-20T00:21:02.807Z,1004.57
2017-10-20T00:21:43.349Z,1004.55
2017-10-20T00:22:23.893Z,1004.56
2017-10-20T00:23:04.436Z,1004.57
2017-10-20T00:23:44.975Z,1004.58
2017-10-20T00:24:25.519Z,1004.6
2017-10-20T00:25:06.063Z,1004.57
2017-10-20T00:25:46.607Z,1004.5
2017-10-20T00:26:27.133Z,1004.51
2017-10-20T00:27:07.669Z,1004.54
2017-10-20T00:27:48.209Z,1004.52
2017-10-20T00:28:28.749Z,1004.49
2017-10-20T00:29:09.301Z,1004.47
2017-10-20T00:29:49.842Z,1004.5
2017-10-20T00:30:30.385Z,1004.45
2017-10-20T00:31:10.918Z,1004.44
2017-10-20T00:31:51.445Z,1004.48
2017-10-20T00:32:31.982Z,1004.48
2017-10-20T00:33:12.548Z,1004.48
2017-10-20T00:33:53.089Z,1004.49
2017-10-20T00:34:33.626Z,1004.47
2017-10-20T00:35:14.160Z,1004.51
2017-10-20T00:35:54.697Z,1004.46
2017-10-20T00:36:35.235Z,1004.46
2017-10-20T00:37:15.765Z,1004.48
2017-10-20T00:37:56.302Z,1004.48
2017-10-20T00:38:36.845Z,1004.47
2017-10-20T00:39:17.387Z,1004.45
2017-10-20T00:39:57.922Z,1004.44
2017-10-20T00:40:38.463Z,1004.44
2017-10-20T00:41:19.004Z,1004.42
2017-10-20T00:41:59.545Z,1004.45
2017-10-20T00:42:40.095Z,1004.42
2017-10-20T00:43:20.637Z,1004.41
2017-10-20T00:44:01.171Z,1004.4
2017-10-20T00:44:41.707Z,1004.43
2017-10-20T00:45:22.252Z,1004.41
2017-10-20T00:46:02.788Z,1004.37
2017-10-20T00:46:43.389Z,1004.4
2017-10-20T00:47:23.928Z,1004.47
2017-10-20T00:48:04.459Z,1004.44
2017-10-20T00:48:44.994Z,1004.45
2017-10-20T00:49:25.530Z,1004.47
2017-10-20T00:50:06.072Z,1004.48
2017-10-20T00:50:46.610Z,1004.42
2017-10-20T00:51:27.194Z,1004.43
2017-10-20T00:52:07.748Z,1004.44
2017-10-20T00:52:48.277Z,1004.44
2017-10-20T00:53:28.814Z,1004.39
2017-10-20T00:54:09.354Z,1004.37
2017-10-20T00:54:49.898Z,1004.35
2017-10-20T00:55:30.434Z,1004.35
2017-10-20T00:56:10.970Z,1004.36
2017-10-20T00:56:51.500Z,1004.37
2017-10-20T00:57:32.041Z,1004.34
2017-10-20T00:58:12.584Z,1004.35
2017-10-20T00:58:53.123Z,1004.31
2017-10-20T00:59:33.660Z,1004.28
2017-10-20T01:00:14.202Z,1004.34
2017-10-20T01:00:54.739Z,1004.32
2017-10-20T01:01:35.276Z,1004.29
2017-10-20T01:02:15.819Z,1004.28
2017-10-20T01:02:56.359Z,1004.34
2017-10-20T01:03:36.898Z,1004.3
2017-10-20T01:04:17.437Z,1004.27
2017-10-20T01:04:57.976Z,1004.32
2017-10-20T01:05:38.515Z,1004.34
2017-10-20T01:06:21.991Z,1004.28
2017-10-20T01:07:02.530Z,1004.3
2017-10-20T01:07:43.070Z,1004.3
2017-10-20T01:08:23.629Z,1004.29
2017-10-20T01:09:04.169Z,1004.3
2017-10-20T01:09:44.707Z,1004.34
2017-10-20T01:10:25.251Z,1004.28
2017-10-20T01:11:05.788Z,1004.34
2017-10-20T01:11:46.331Z,1004.34
2017-10-20T01:12:26.893Z,1004.27
2017-10-20T01:13:07.411Z,1004.29
2017-10-20T01:13:47.940Z,1004.33
2017-10-20T01:14:28.478Z,1004.38
2017-10-20T01:15:09.018Z,1004.34
2017-10-20T01:15:49.556Z,1004.33
2017-10-20T01:16:30.095Z,1004.27
2017-10-20T01:17:11.605Z,1004.33
2017-10-20T01:18:27.728Z,1004.32
2017-10-20T01:19:08.268Z,1004.29
2017-10-20T01:19:48.808Z,1004.35
2017-10-20T01:20:29.346Z,1004.29
2017-10-20T01:21:09.881Z,1004.32
2017-10-20T01:21:50.419Z,1004.35
2017-10-20T01:22:30.955Z,1004.31
2017-10-20T01:23:11.493Z,1004.27
2017-10-20T01:23:52.030Z,1004.25
2017-10-20T01:24:32.567Z,1004.24
2017-10-20T01:25:13.102Z,1004.26
2017-10-20T01:25:53.642Z,1004.24
2017-10-20T01:26:34.182Z,1004.26
2017-10-20T01:27:14.722Z,1004.27
2017-10-20T01:27:55.261Z,1004.25
2017-10-20T01:28:35.801Z,1004.27
2017-10-20T01:29:16.336Z,1004.25
2017-10-20T01:29:56.874Z,1004.28
2017-10-20T01:30:37.408Z,1004.26
2017-10-20T01:31:17.963Z,1004.24
2017-10-20T01:31:58.488Z,1004.24
2017-10-20T01:32:39.027Z,1004.22
2017-10-20T01:33:19.567Z,1004.21
2017-10-20T01:34:00.111Z,1004.21
2017-10-20T01:34:40.645Z,1004.23
2017-10-20T01:35:21.183Z,1004.25
2017-10-20T01:36:01.725Z,1004.24
2017-10-20T01:36:42.264Z,1004.23
2017-10-20T01:37:22.802Z,1004.18
2017-10-20T01:38:03.345Z,1004.2
2017-10-20T01:38:43.879Z,1004.23
2017-10-20T01:39:24.424Z,1004.2
2017-10-20T01:40:04.978Z,1004.15
2017-10-20T01:40:45.518Z,1004.2
2017-10-20T01:41:26.048Z,1004.16
2017-10-20T01:42:06.579Z,1004.15
2017-10-20T01:42:47.119Z,1004.13
2017-10-20T01:43:27.657Z,1004.15
2017-10-20T01:44:08.200Z,1004.12
2017-10-20T01:44:48.738Z,1004.12
2017-10-20T01:45:29.276Z,1004.11
2017-10-20T01:46:09.814Z,1004.1
2017-10-20T01:46:50.356Z,1004.15
2017-10-20T01:47:30.891Z,1004.11
2017-10-20T01:48:11.428Z,1004.11
2017-10-20T01:48:51.965Z,1004.15
2017-10-20T01:49:32.502Z,1004.21
2017-10-20T01:50:13.042Z,1004.12
2017-10-20T01:50:53.582Z,1004.12
2017-10-20T01:51:34.123Z,1004.17
2017-10-20T01:52:14.663Z,1004.12
2017-10-20T01:52:55.196Z,1004.16
2017-10-20T01:53:35.729Z,1004.13
2017-10-20T01:54:16.267Z,1004.1
2017-10-20T01:54:56.808Z,1004.1
2017-10-20T01:55:37.344Z,1004.04
2017-10-20T01:56:17.888Z,1004.08
2017-10-20T01:56:58.425Z,1004.08
2017-10-20T01:57:38.964Z,1004.08
2017-10-20T01:58:19.502Z,1004.08
2017-10-20T01:59:00.036Z,1004.02
2017-10-20T01:59:40.573Z,1003.97
2017-10-20T02:00:21.114Z,1003.98
2017-10-20T02:01:01.660Z,1003.96
2017-10-20T02:01:42.194Z,1003.94
2017-10-20T02:02:22.734Z,1003.96
2017-10-20T02:03:03.286Z,1003.92
2017-10-20T02:03:43.809Z,1003.99
2017-10-20T02:04:24.352Z,1003.97
2017-10-20T02:05:04.890Z,1003.97
2017-10-20T02:05:45.423Z,1003.99
2017-10-20T02:06:25.961Z,1004.04
2017-10-20T02:07:06.500Z,1004.04
2017-10-20T02:07:47.039Z,1004.05
2017-10-20T02:08:27.574Z,1004.1
2017-10-20T02:09:08.173Z,1004.07
2017-10-20T02:09:48.711Z,1004.09
2017-10-20T02:10:29.274Z,1004.06
2017-10-20T02:11:09.808Z,1004.04
2017-10-20T02:11:50.355Z,1003.96
2017-10-20T02:12:30.909Z,1003.98
2017-10-20T02:13:11.420Z,1003.96
2017-10-20T02:13:51.954Z,1003.93
2017-10-20T02:14:32.493Z,1003.91
2017-10-20T02:15:13.035Z,1003.93
2017-10-20T02:15:53.571Z,1003.88
2017-10-20T02:16:34.109Z,1003.87
2017-10-20T02:17:14.645Z,1003.86
2017-10-20T02:17:55.186Z,1003.81
2017-10-20T02:18:35.723Z,1003.81
2017-10-20T02:19:16.261Z,1003.84
2017-10-20T02:19:56.796Z,1003.86
2017-10-20T02:20:37.338Z,1003.84
2017-10-20T02:21:17.874Z,1003.83
2017-10-20T02:21:58.413Z,1003.8
2017-10-20T02:22:38.944Z,1003.77
2017-10-20T02:23:19.484Z,1003.8
2017-10-20T02:24:00.021Z,1003.8
2017-10-20T02:24:40.558Z,1003.83
2017-10-20T02:25:21.099Z,1003.8
2017-10-20T02:26:01.652Z,1003.77
2017-10-20T02:26:42.192Z,1003.75
2017-10-20T02:27:22.730Z,1003.73
2017-10-20T02:28:03.274Z,1003.68
2017-10-20T02:28:43.813Z,1003.66
2017-10-20T02:29:24.351Z,1003.63
2017-10-20T02:30:04.886Z,1003.58
2017-10-20T02:30:45.424Z,1003.54
2017-10-20T02:31:25.965Z,1003.54
2017-10-20T02:32:06.504Z,1003.5
2017-10-20T02:32:47.045Z,1003.55
2017-10-20T02:33:27.583Z,1003.47
2017-10-20T02:34:08.125Z,1003.46
2017-10-20T02:34:48.679Z,1003.49
2017-10-20T02:35:29.201Z,1003.47
2017-10-20T02:36:09.732Z,1003.47
2017-10-20T02:36:50.272Z,1003.49
2017-10-20T02:37:30.812Z,1003.47
2017-10-20T02:38:11.355Z,1003.46
2017-10-20T02:38:51.893Z,1003.44
2017-10-20T02:39:32.443Z,1003.41
2017-10-20T02:40:12.980Z,1003.41
2017-10-20T02:40:53.521Z,1003.4
2017-10-20T02:41:34.060Z,1003.34
2017-10-20T02:42:14.597Z,1003.39
2017-10-20T02:42:55.139Z,1003.41
2017-10-20T02:43:35.738Z,1003.43
2017-10-20T02:44:16.284Z,1003.4
2017-10-20T02:44:56.811Z,1003.44
2017-10-20T02:45:37.339Z,1003.45
2017-10-20T02:46:17.881Z,1003.41
2017-10-20T02:46:58.424Z,1003.4
2017-10-20T02:47:38.960Z,1003.42
2017-10-20T02:48:19.503Z,1003.42
2017-10-20T02:49:00.040Z,1003.42
2017-10-20T02:49:40.583Z,1003.43
2017-10-20T02:50:21.117Z,1003.42
2017-10-20T02:51:01.653Z,1003.42
2017-10-20T02:51:42.186Z,1003.39
2017-10-20T02:52:22.724Z,1003.4
2017-10-20T02:53:03.265Z,1003.43
2017-10-20T02:53:43.802Z,1003.41
2017-10-20T02:54:24.344Z,1003.42
2017-10-20T02:55:04.881Z,1003.41
2017-10-20T02:55:45.410Z,1003.36
2017-10-20T02:56:25.949Z,1003.39
2017-10-20T02:57:06.485Z,1003.37
2017-10-20T02:57:47.021Z,1003.37
2017-10-20T02:58:27.558Z,1003.39
2017-10-20T02:59:08.098Z,1003.44
2017-10-20T02:59:48.635Z,1003.36
2017-10-20T03:00:29.172Z,1003.42
2017-10-20T03:01:09.707Z,1003.39
2017-10-20T03:01:50.230Z,1003.38
2017-10-20T03:02:30.766Z,1003.43
2017-10-20T03:03:11.297Z,1003.42
2017-10-20T03:03:51.816Z,1003.32
2017-10-20T03:04:32.352Z,1003.31
2017-10-20T03:05:12.883Z,1003.33
2017-10-20T03:05:53.424Z,1003.39
2017-10-20T03:06:33.964Z,1003.33
2017-10-20T03:07:14.505Z,1003.4
2017-10-20T03:07:55.092Z,1003.39
2017-10-20T03:08:35.624Z,1003.35
2017-10-20T03:09:16.168Z,1003.31
2017-10-20T03:09:56.774Z,1003.31
2017-10-20T03:10:37.303Z,1003.26
2017-10-20T03:11:17.876Z,1003.24
2017-10-20T03:11:58.415Z,1003.26
2017-10-20T03:12:38.958Z,1003.23
2017-10-20T03:13:19.484Z,1003.28
2017-10-20T03:14:00.028Z,1003.24
2017-10-20T03:14:40.553Z,1003.25
2017-10-20T03:15:21.125Z,1003.31
2017-10-20T03:16:01.659Z,1003.28
2017-10-20T03:16:42.210Z,1003.29
2017-10-20T03:17:22.736Z,1003.24
2017-10-20T03:18:03.276Z,1003.26
2017-10-20T03:18:43.816Z,1003.21
2017-10-20T03:19:24.355Z,1003.19
2017-10-20T03:20:04.893Z,1003.19
2017-10-20T03:20:45.426Z,1003.2
2017-10-20T03:21:25.964Z,1003.21
2017-10-20T03:22:06.496Z,1003.22
2017-10-20T03:22:47.020Z,1003.26
2017-10-20T03:23:27.629Z,1003.26
2017-10-20T03:24:08.161Z,1003.25
2017-10-20T03:24:48.698Z,1003.24
2017-10-20T03:25:29.230Z,1003.26
2017-10-20T03:26:09.771Z,1003.3
2017-10-20T03:26:50.305Z,1003.3
2017-10-20T03:27:30.848Z,1003.26
2017-10-20T03:28:11.389Z,1003.2
2017-10-20T03:28:51.930Z,1003.19
2017-10-20T03:29:32.493Z,1003.15
2017-10-20T03:30:13.032Z,1003.19
2017-10-20T03:30:53.561Z,1003.2
2017-10-20T03:31:34.096Z,1003.23
2017-10-20T03:32:14.637Z,1003.2
2017-10-20T03:32:55.167Z,1003.24
2017-10-20T03:33:35.706Z,1003.25
2017-10-20T03:34:16.249Z,1003.24
2017-10-20T03:34:56.787Z,1003.26
2017-10-20T03:35:37.322Z,1003.27
2017-10-20T03:36:17.852Z,1003.33
2017-10-20T03:36:58.391Z,1003.33
2017-10-20T03:37:38.999Z,1003.34
2017-10-20T03:38:19.535Z,1003.34
2017-10-20T03:39:00.076Z,1003.37
2017-10-20T03:39:40.693Z,1003.33
2017-10-20T03:40:21.225Z,1003.3
2017-10-20T03:41:01.742Z,1003.31
2017-10-20T03:41:42.294Z,1003.35
2017-10-20T03:42:22.828Z,1003.33
2017-10-20T03:43:03.369Z,1003.35
2017-10-20T03:43:43.926Z,1003.34
2017-10-20T03:44:24.460Z,1003.38
2017-10-20T03:45:04.991Z,1003.41
2017-10-20T03:45:45.539Z,1003.39
2017-10-20T03:46:26.074Z,1003.35
2017-10-20T03:47:06.612Z,1003.36
2017-10-20T03:47:47.161Z,1003.44
2017-10-20T03:48:27.700Z,1003.43
2017-10-20T03:49:08.273Z,1003.45
2017-10-20T03:49:48.816Z,1003.44
2017-10-20T03:50:29.345Z,1003.44
2017-10-20T03:51:09.884Z,1003.47
2017-10-20T03:51:50.414Z,1003.47
2017-10-20T03:52:30.971Z,1003.51
2017-10-20T03:53:11.500Z,1003.49
2017-10-20T03:53:52.047Z,1003.5
2017-10-20T03:54:32.581Z,1003.45
2017-10-20T03:55:13.117Z,1003.41
2017-10-20T03:55:53.656Z,1003.4
2017-10-20T03:56:34.193Z,1003.4
2017-10-20T03:57:14.735Z,1003.44
2017-10-20T03:57:55.270Z,1003.4
2017-10-20T03:58:35.805Z,1003.43
2017-10-20T03:59:16.343Z,1003.4
2017-10-20T03:59:56.891Z,1003.3
2017-10-20T04:00:37.418Z,1003.36
2017-10-20T04:01:17.957Z,1003.36
2017-10-20T04:01:58.500Z,1003.27
2017-10-20T04:02:39.050Z,1003.3
2017-10-20T04:03:19.580Z,1003.4
2017-10-20T04:04:00.126Z,1003.34
2017-10-20T04:04:40.660Z,1003.27
2017-10-20T04:05:21.326Z,1003.38
2017-10-20T04:06:01.867Z,1003.41
2017-10-20T04:06:42.405Z,1003.44
2017-10-20T04:07:22.944Z,1003.42
2017-10-20T04:08:03.479Z,1003.43
2017-10-20T04:08:44.021Z,1003.37
2017-10-20T04:09:24.561Z,1003.31
2017-10-20T04:10:05.089Z,1003.33
2017-10-20T04:10:45.623Z,1003.31
2017-10-20T04:11:26.802Z,1003.36
2017-10-20T04:12:07.339Z,1003.35
2017-10-20T04:12:47.884Z,1003.36
2017-10-20T04:13:28.423Z,1003.34
2017-10-20T04:14:08.966Z,1003.41
2017-10-20T04:14:49.506Z,1003.49
2017-10-20T04:15:30.204Z,1003.45
2017-10-20T04:16:10.806Z,1003.38
2017-10-20T04:16:51.370Z,1003.36
2017-10-20T04:17:31.917Z,1003.3
2017-10-20T04:18:12.466Z,1003.34
2017-10-20T04:18:53.004Z,1003.36
2017-10-20T04:19:33.543Z,1003.25
2017-10-20T04:20:14.071Z,1003.24
2017-10-20T04:20:54.613Z,1003.28
2017-10-20T04:21:36.120Z,1003.26
2017-10-20T04:22:16.871Z,1003.33
2017-10-20T04:22:57.508Z,1003.22
2017-10-20T04:23:38.121Z,1003.24
2017-10-20T04:24:18.702Z,1003.23
2017-10-20T04:24:59.232Z,1003.27
2017-10-20T04:25:39.917Z,1003.28
2017-10-20T04:26:20.417Z,1003.29
2017-10-20T04:27:00.953Z,1003.3
2017-10-20T04:27:41.487Z,1003.32
2017-10-20T04:28:22.024Z,1003.34
2017-10-20T04:29:02.560Z,1003.31
2017-10-20T04:29:43.103Z,1003.34
2017-10-20T04:30:23.646Z,1003.39
2017-10-20T04:31:04.180Z,1003.35
2017-10-20T04:31:44.722Z,1003.34
2017-10-20T04:32:25.260Z,1003.37
2017-10-20T04:33:05.800Z,1003.33
2017-10-20T04:33:46.336Z,1003.36
2017-10-20T04:34:26.876Z,1003.34
2017-10-20T04:35:07.418Z,1003.33
2017-10-20T04:35:47.958Z,1003.39
2017-10-20T04:36:28.496Z,1003.43
2017-10-20T04:37:09.025Z,1003.46
2017-10-20T04:37:49.597Z,1003.44
2017-10-20T04:38:30.126Z,1003.35
2017-10-20T04:39:10.665Z,1003.38
2017-10-20T04:39:51.239Z,1003.35
2017-10-20T04:40:31.744Z,1003.35
2017-10-20T04:41:12.286Z,1003.37
2017-10-20T04:41:52.871Z,1003.37
2017-10-20T04:42:33.413Z,1003.42
2017-10-20T04:43:13.947Z,1003.41
2017-10-20T04:43:54.489Z,1003.38
2017-10-20T04:44:35.021Z,1003.41
2017-10-20T04:45:15.561Z,1003.46
2017-10-20T04:45:56.091Z,1003.47
2017-10-20T04:46:36.639Z,1003.37
2017-10-20T04:47:17.173Z,1003.37
2017-10-20T04:47:57.744Z,1003.41
2017-10-20T04:48:38.296Z,1003.4
2017-10-20T04:49:18.845Z,1003.39
2017-10-20T04:49:59.422Z,1003.32
2017-10-20T04:50:39.933Z,1003.35
2017-10-20T04:51:20.482Z,1003.4
2017-10-20T04:52:01.029Z,1003.47
2017-10-20T04:52:41.576Z,1003.5
2017-10-20T04:53:22.121Z,1003.51
2017-10-20T04:54:02.663Z,1003.54
2017-10-20T04:54:43.202Z,1003.54
2017-10-20T04:55:23.738Z,1003.55
2017-10-20T04:56:04.349Z,1003.63
2017-10-20T04:56:44.888Z,1003.61
2017-10-20T04:57:25.552Z,1003.69
2017-10-20T04:58:06.094Z,1003.68
2017-10-20T04:58:46.685Z,1003.71
2017-10-20T04:59:27.231Z,1003.72
2017-10-20T05:00:07.797Z,1003.71
2017-10-20T05:00:48.308Z,1003.66
2017-10-20T05:01:28.845Z,1003.67
2017-10-20T05:02:09.424Z,1003.65
2017-10-20T05:02:49.966Z,1003.64
2017-10-20T05:03:30.492Z,1003.64
2017-10-20T05:04:11.032Z,1003.66
2017-10-20T05:04:51.572Z,1003.63
2017-10-20T05:05:32.107Z,1003.57
2017-10-20T05:08:01.595Z,1003.52
2017-10-20T05:08:42.121Z,1003.54
2017-10-20T05:09:22.653Z,1003.48
2017-10-20T05:10:03.179Z,1003.47
2017-10-20T05:10:43.710Z,1003.53
2017-10-20T05:11:24.240Z,1003.48
2017-10-20T05:12:04.872Z,1003.47
2017-10-20T05:12:45.790Z,1003.47
2017-10-20T05:13:26.257Z,1003.53
2017-10-20T05:14:06.794Z,1003.58
2017-10-20T05:14:47.351Z,1003.58
2017-10-20T05:15:27.873Z,1003.52
2017-10-20T05:16:08.466Z,1003.52
2017-10-20T05:16:48.999Z,1003.59
2017-10-20T05:17:29.528Z,1003.59
2017-10-20T05:18:10.070Z,1003.58
2017-10-20T05:18:50.600Z,1003.5
2017-10-20T05:19:31.140Z,1003.49
2017-10-20T05:20:12.335Z,1003.5
2017-10-20T05:20:52.883Z,1003.51
2017-10-20T05:21:33.426Z,1003.54
2017-10-20T05:22:13.969Z,1003.49
2017-10-20T05:22:54.493Z,1003.46
2017-10-20T05:23:35.026Z,1003.48
2017-10-20T05:24:15.549Z,1003.46
2017-10-20T05:24:56.085Z,1003.47
2017-10-20T05:25:36.617Z,1003.44
2017-10-20T05:26:17.151Z,1003.41
2017-10-20T05:26:57.685Z,1003.36
2017-10-20T05:27:38.213Z,1003.4
2017-10-20T05:28:18.744Z,1003.37
2017-10-20T05:28:59.281Z,1003.3
2017-10-20T05:29:39.816Z,1003.3
2017-10-20T05:30:20.382Z,1003.28
2017-10-20T05:31:00.911Z,1003.3
2017-10-20T05:31:41.448Z,1003.22
2017-10-20T05:32:21.982Z,1003.19
2017-10-20T05:33:02.534Z,1003.18
2017-10-20T05:33:43.066Z,1003.14
2017-10-20T05:34:23.588Z,1003.13
2017-10-20T05:35:04.126Z,1003.1
2017-10-20T05:35:44.659Z,1003.13
2017-10-20T05:36:25.194Z,1003.15
2017-10-20T05:37:05.732Z,1003.14
2017-10-20T05:37:46.301Z,1003.12
2017-10-20T05:38:26.835Z,1003.09
2017-10-20T05:39:07.361Z,1003.13
2017-10-20T05:39:47.898Z,1003.04
2017-10-20T05:40:28.428Z,1003.06
2017-10-20T05:41:08.957Z,1003.08
2017-10-20T05:41:49.493Z,1003.08
2017-10-20T05:42:30.028Z,1003.07
2017-10-20T05:43:10.553Z,1003.05
2017-10-20T05:43:51.086Z,1003.09
2017-10-20T05:44:31.630Z,1003.09
2017-10-20T05:45:12.175Z,1003.12
2017-10-20T05:45:52.717Z,1003.17
2017-10-20T05:46:33.244Z,1003.11
2017-10-20T05:47:13.782Z,1003.2
2017-10-20T05:47:54.315Z,1003.2
2017-10-20T05:48:34.853Z,1003.21
2017-10-20T05:49:15.385Z,1003.22
2017-10-20T05:49:55.925Z,1003.22
2017-10-20T05:50:36.466Z,1003.19
2017-10-20T05:51:17.006Z,1003.21
2017-10-20T05:51:57.538Z,1003.29
2017-10-20T05:52:38.073Z,1003.3
2017-10-20T05:53:18.614Z,1003.39
2017-10-20T05:53:59.154Z,1003.38
2017-10-20T05:54:39.681Z,1003.39
2017-10-20T05:55:20.218Z,1003.42
2017-10-20T05:56:00.752Z,1003.49
2017-10-20T05:56:41.276Z,1003.45
2017-10-20T05:57:21.818Z,1003.45
2017-10-20T05:58:02.347Z,1003.4
2017-10-20T05:58:42.885Z,1003.43
2017-10-20T05:59:23.423Z,1003.42
2017-10-20T06:00:03.955Z,1003.38
2017-10-20T06:00:44.491Z,1003.43
2017-10-20T06:01:25.026Z,1003.43
2017-10-20T06:02:05.560Z,1003.4
2017-10-20T06:02:46.093Z,1003.38
2017-10-20T06:03:26.629Z,1003.41
2017-10-20T06:04:07.165Z,1003.39
2017-10-20T06:04:47.702Z,1003.37
2017-10-20T06:05:28.234Z,1003.36
2017-10-20T06:06:08.773Z,1003.35
2017-10-20T06:06:49.313Z,1003.43
2017-10-20T06:07:29.843Z,1003.4
2017-10-20T06:08:10.376Z,1003.39
2017-10-20T06:08:50.912Z,1003.43
2017-10-20T06:09:31.437Z,1003.41
2017-10-20T06:10:11.973Z,1003.38
2017-10-20T06:10:52.495Z,1003.37
2017-10-20T06:11:33.037Z,1003.39
2017-10-20T06:12:13.566Z,1003.37
2017-10-20T06:12:54.104Z,1003.39
2017-10-20T06:13:34.635Z,1003.42
2017-10-20T06:14:15.168Z,1003.43
2017-10-20T06:14:55.706Z,1003.39
2017-10-20T06:15:36.240Z,1003.4
2017-10-20T06:16:16.785Z,1003.41
2017-10-20T06:16:57.320Z,1003.45
2017-10-20T06:17:37.845Z,1003.46
2017-10-20T06:18:18.390Z,1003.48
2017-10-20T06:18:58.922Z,1003.46
2017-10-20T06:19:39.475Z,1003.48
2017-10-20T06:20:20.015Z,1003.5
2017-10-20T06:21:00.625Z,1003.42
2017-10-20T06:21:41.157Z,1003.47
2017-10-20T06:22:21.696Z,1003.43
2017-10-20T06:23:02.229Z,1003.41
2017-10-20T06:23:42.769Z,1003.41
2017-10-20T06:24:23.330Z,1003.44
2017-10-20T06:25:03.862Z,1003.43
2017-10-20T06:25:44.401Z,1003.42
2017-10-20T06:26:24.950Z,1003.43
2017-10-20T06:27:05.488Z,1003.46
2017-10-20T06:27:46.026Z,1003.4
2017-10-20T06:28:26.556Z,1003.43
2017-10-20T06:29:07.091Z,1003.43
2017-10-20T06:29:47.621Z,1003.44
2017-10-20T06:30:28.162Z,1003.4
2017-10-20T06:31:08.701Z,1003.38
2017-10-20T06:31:49.234Z,1003.38
2017-10-20T06:32:29.761Z,1003.4
2017-10-20T06:33:10.300Z,1003.39
2017-10-20T06:33:50.839Z,1003.33
2017-10-20T06:34:31.373Z,1003.37
2017-10-20T06:35:11.910Z,1003.33
2017-10-20T06:35:52.448Z,1003.33
2017-10-20T06:36:32.986Z,1003.35
2017-10-20T06:37:13.518Z,1003.35
2017-10-20T06:37:54.052Z,1003.39
2017-10-20T06:38:34.583Z,1003.39
2017-10-20T06:39:15.147Z,1003.35
2017-10-20T06:39:55.677Z,1003.38
2017-10-20T06:40:36.211Z,1003.35
2017-10-20T06:41:16.751Z,1003.44
2017-10-20T06:41:57.291Z,1003.51
2017-10-20T06:42:37.828Z,1003.49
2017-10-20T06:43:18.362Z,1003.48
2017-10-20T06:43:58.899Z,1003.49
2017-10-20T06:44:39.432Z,1003.52
2017-10-20T06:45:19.973Z,1003.55
2017-10-20T06:46:00.507Z,1003.52
2017-10-20T06:46:41.041Z,1003.53
2017-10-20T06:47:21.570Z,1003.51
2017-10-20T06:48:02.129Z,1003.56
2017-10-20T06:48:42.650Z,1003.49
2017-10-20T06:49:23.186Z,1003.54
2017-10-20T06:50:03.722Z,1003.61
2017-10-20T06:50:44.265Z,1003.6
2017-10-20T06:51:24.800Z,1003.59
2017-10-20T06:52:05.331Z,1003.58
2017-10-20T06:52:45.869Z,1003.57
2017-10-20T06:53:26.403Z,1003.63
2017-10-20T06:54:06.941Z,1003.65
2017-10-20T06:54:47.474Z,1003.65
2017-10-20T06:55:28.011Z,1003.66
2017-10-20T06:56:08.538Z,1003.69
2017-10-20T06:56:49.073Z,1003.69
2017-10-20T06:57:29.609Z,1003.67
2017-10-20T06:58:10.147Z,1003.75
2017-10-20T06:58:50.687Z,1003.68
2017-10-20T06:59:31.222Z,1003.81
2017-10-20T07:00:11.760Z,1003.69
2017-10-20T07:00:52.293Z,1003.63
2017-10-20T07:01:32.826Z,1003.63
2017-10-20T07:02:13.359Z,1003.6
2017-10-20T07:02:53.895Z,1003.61
2017-10-20T07:03:34.427Z,1003.63
2017-10-20T07:04:14.967Z,1003.65
2017-10-20T07:04:55.508Z,1003.66
2017-10-20T07:05:36.042Z,1003.69
2017-10-20T07:06:16.571Z,1003.71
2017-10-20T07:06:57.098Z,1003.7
2017-10-20T07:07:37.650Z,1003.73
2017-10-20T07:08:18.198Z,1003.78
2017-10-20T07:08:58.722Z,1003.74
2017-10-20T07:09:39.256Z,1003.74
2017-10-20T07:10:19.787Z,1003.77
2017-10-20T07:11:00.318Z,1003.71
2017-10-20T07:11:40.857Z,1003.73
2017-10-20T07:12:21.391Z,1003.72
2017-10-20T07:13:01.929Z,1003.75
2017-10-20T07:13:42.480Z,1003.73
2017-10-20T07:14:23.051Z,1003.74
2017-10-20T07:15:03.588Z,1003.72
2017-10-20T07:15:44.123Z,1003.68
2017-10-20T07:16:24.646Z,1003.69
2017-10-20T07:17:05.185Z,1003.66
2017-10-20T07:17:45.714Z,1003.73
2017-10-20T07:18:26.254Z,1003.74
2017-10-20T07:19:06.791Z,1003.73
2017-10-20T07:19:47.333Z,1003.69
2017-10-20T07:20:27.971Z,1003.71
2017-10-20T07:21:08.562Z,1003.69
2017-10-20T07:21:49.112Z,1003.67
2017-10-20T07:22:29.638Z,1003.61
2017-10-20T07:23:10.177Z,1003.56
2017-10-20T07:23:50.716Z,1003.6
2017-10-20T07:24:31.272Z,1003.57
2017-10-20T07:25:11.786Z,1003.53
2017-10-20T07:25:52.312Z,1003.52
2017-10-20T07:26:32.854Z,1003.51
2017-10-20T07:27:13.391Z,1003.49
2017-10-20T07:27:53.929Z,1003.43
2017-10-20T07:28:34.465Z,1003.43
2017-10-20T07:29:14.998Z,1003.45
2017-10-20T07:29:55.532Z,1003.38
2017-10-20T07:30:36.067Z,1003.44
2017-10-20T07:31:16.603Z,1003.51
2017-10-20T07:31:57.143Z,1003.46
2017-10-20T07:32:37.671Z,1003.4
2017-10-20T07:33:18.205Z,1003.4
2017-10-20T07:33:58.740Z,1003.37
2017-10-20T07:34:39.281Z,1003.38
2017-10-20T07:35:19.826Z,1003.4
2017-10-20T07:36:00.359Z,1003.37
2017-10-20T07:36:40.901Z,1003.38
2017-10-20T07:37:21.440Z,1003.38
2017-10-20T07:38:01.979Z,1003.3
2017-10-20T07:38:42.515Z,1003.3
2017-10-20T07:39:23.045Z,1003.4
2017-10-20T07:40:03.587Z,1003.39
2017-10-20T07:40:44.126Z,1003.32
2017-10-20T07:41:24.662Z,1003.34
2017-10-20T07:42:05.210Z,1003.32
2017-10-20T07:42:45.735Z,1003.34
2017-10-20T07:43:26.270Z,1003.29
2017-10-20T07:44:06.809Z,1003.25
2017-10-20T07:44:47.343Z,1003.27
2017-10-20T07:45:27.879Z,1003.28
2017-10-20T07:46:08.418Z,1003.3
2017-10-20T07:46:48.959Z,1003.3
2017-10-20T07:47:29.494Z,1003.32
2017-10-20T07:48:10.029Z,1003.35
2017-10-20T07:48:50.562Z,1003.4
2017-10-20T07:49:31.104Z,1003.39
2017-10-20T07:50:11.654Z,1003.45
2017-10-20T07:50:52.193Z,1003.41
2017-10-20T07:51:32.789Z,1003.45
2017-10-20T07:52:13.332Z,1003.46
2017-10-20T07:52:53.859Z,1003.45
2017-10-20T07:53:34.399Z,1003.47
2017-10-20T07:54:14.940Z,1003.62
2017-10-20T07:54:55.468Z,1003.47
2017-10-20T07:55:36.009Z,1003.51
2017-10-20T07:56:16.580Z,1003.58
2017-10-20T07:56:57.119Z,1003.58
2017-10-20T07:57:37.648Z,1003.5
2017-10-20T07:58:18.182Z,1003.49
2017-10-20T07:58:58.714Z,1003.58
2017-10-20T07:59:39.254Z,1003.5
2017-10-20T08:00:19.796Z,1003.61
2017-10-20T08:01:00.334Z,1003.53
2017-10-20T08:01:40.867Z,1003.49
2017-10-20T08:02:21.426Z,1003.51
2017-10-20T08:03:01.942Z,1003.54
2017-10-20T08:03:42.483Z,1003.55
2017-10-20T08:04:23.019Z,1003.58
2017-10-20T08:05:03.556Z,1003.56
2017-10-20T08:05:44.093Z,1003.53
2017-10-20T08:06:24.630Z,1003.49
2017-10-20T08:07:05.170Z,1003.36
2017-10-20T08:07:45.701Z,1003.37
2017-10-20T08:08:26.236Z,1003.43
2017-10-20T08:09:06.779Z,1003.43
2017-10-20T08:09:47.314Z,1003.39
2017-10-20T08:10:27.852Z,1003.47
2017-10-20T08:11:08.382Z,1003.39
2017-10-20T08:11:48.925Z,1003.44
2017-10-20T08:12:29.451Z,1003.39
2017-10-20T08:13:09.988Z,1003.42
2017-10-20T08:13:50.526Z,1003.49
2017-10-20T08:14:31.045Z,1003.47